createdAt,value
2023-09-27T00:00:05.865Z,97697.47
2023-09-27T00:02:32.709Z,97696.91
2023-09-27T00:04:59.866Z,97693.88
2023-09-27T00:07:27.246Z,97690.13
2023-09-27T00:09:54.536Z,97686.75
2023-09-27T00:12:22.166Z,97687.75
2023-09-27T00:14:49.481Z,97683.03
2023-09-27T00:17:16.521Z,97680.25
2023-09-27T00:19:43.636Z,97687.47
2023-09-27T00:22:11.483Z,97686.75
2023-09-27T00:24:39.118Z,97677.47
2023-09-27T00:27:06.275Z,97683.56
2023-09-27T00:29:33.324Z,97677.47
2023-09-27T00:32:00.782Z,97675.81
2023-09-27T00:34:27.930Z,97675.09
2023-09-27T00:36:55.083Z,97680.38
2023-09-27T00:39:22.341Z,97678.16
2023-09-27T00:41:49.718Z,97674.94
2023-09-27T00:44:16.545Z,97673.53
2023-09-27T00:46:44.953Z,97675.44
2023-09-27T00:49:13.794Z,97671.88
2023-09-27T00:51:41.152Z,97678.09
2023-09-27T00:54:09.184Z,97677.13
2023-09-27T00:56:35.967Z,97679.94
2023-09-27T00:59:04.070Z,97678.56
2023-09-27T01:01:32.296Z,97681.63
2023-09-27T01:03:59.579Z,97683.00
2023-09-27T01:06:27.026Z,97681.88
2023-09-27T01:08:54.256Z,97671.22
2023-09-27T01:11:21.333Z,97673.59
2023-09-27T01:13:51.532Z,97675.09
2023-09-27T01:16:18.847Z,97682.72
2023-09-27T01:18:45.972Z,97669.44
2023-09-27T01:21:12.814Z,97672.91
2023-09-27T01:23:42.576Z,97684.25
2023-09-27T01:26:12.379Z,97676.66
2023-09-27T01:28:42.324Z,97672.50
2023-09-27T01:31:09.296Z,97673.06
2023-09-27T01:33:39.034Z,97675.97
2023-09-27T01:36:06.849Z,97672.75
2023-09-27T01:38:34.478Z,97673.44
2023-09-27T01:41:02.948Z,97684.97
2023-09-27T01:43:30.064Z,97685.81
2023-09-27T01:45:57.050Z,97681.91
2023-09-27T01:48:24.081Z,97689.97
2023-09-27T01:50:51.450Z,97687.22
2023-09-27T01:53:18.692Z,97683.59
2023-09-27T01:55:46.332Z,97681.22
2023-09-27T01:58:13.503Z,97678.31
2023-09-27T02:00:40.308Z,97670.41
2023-09-27T02:03:07.575Z,97679.84
2023-09-27T02:05:37.660Z,97684.56
2023-09-27T02:08:05.166Z,97676.66
2023-09-27T02:10:32.143Z,97680.81
2023-09-27T02:12:59.134Z,97676.66
2023-09-27T02:15:26.075Z,97678.31
2023-09-27T02:17:53.387Z,97675.53
2023-09-27T02:20:20.479Z,97690.25
2023-09-27T02:22:51.813Z,97674.28
2023-09-27T02:25:19.248Z,97681.94
2023-09-27T02:27:46.309Z,97679.44
2023-09-27T02:30:13.455Z,97688.19
2023-09-27T02:32:42.317Z,97680.53
2023-09-27T02:35:10.723Z,97670.00
2023-09-27T02:37:39.478Z,97673.03
2023-09-27T02:40:13.770Z,97676.94
2023-09-27T02:42:45.848Z,97682.19
2023-09-27T02:45:13.665Z,97676.78
2023-09-27T02:47:45.033Z,97683.19
2023-09-27T02:50:12.485Z,97674.41
2023-09-27T02:52:42.605Z,97678.59
2023-09-27T02:55:10.882Z,97685.94
2023-09-27T02:57:38.164Z,97691.38
2023-09-27T03:00:06.050Z,97681.75
2023-09-27T03:02:34.808Z,97677.47
2023-09-27T03:05:04.510Z,97686.88
2023-09-27T03:07:31.510Z,97684.50
2023-09-27T03:10:00.026Z,97683.00
2023-09-27T03:12:27.030Z,97680.78
2023-09-27T03:14:54.283Z,97685.22
2023-09-27T03:17:24.646Z,97687.59
2023-09-27T03:19:51.831Z,97687.59
2023-09-27T03:22:19.236Z,97682.84
2023-09-27T03:24:48.558Z,97693.97
2023-09-27T03:27:15.449Z,97683.13
2023-09-27T03:29:42.512Z,97693.81
2023-09-27T03:32:10.116Z,97694.38
2023-09-27T03:34:37.342Z,97696.47
2023-09-27T03:37:06.323Z,97687.41
2023-09-27T03:39:37.358Z,97693.78
2023-09-27T03:42:05.018Z,97688.47
2023-09-27T03:44:32.684Z,97692.66
2023-09-27T03:47:00.223Z,97693.50
2023-09-27T03:49:27.353Z,97697.53
2023-09-27T03:51:54.195Z,97691.69
2023-09-27T03:54:21.529Z,97687.50
2023-09-27T03:56:48.521Z,97694.59
2023-09-27T03:59:26.712Z,97690.16
2023-09-27T04:01:53.559Z,97695.16
2023-09-27T04:06:47.241Z,97692.97
2023-09-27T04:09:14.644Z,97694.81
2023-09-27T04:11:41.867Z,97702.72
2023-09-27T04:14:08.950Z,97698.00
2023-09-27T04:16:36.044Z,97700.78
2023-09-27T04:19:05.603Z,97699.41
2023-09-27T04:21:32.757Z,97699.09
2023-09-27T04:24:01.056Z,97702.03
2023-09-27T04:26:31.744Z,97699.66
2023-09-27T04:28:58.718Z,97704.66
2023-09-27T04:31:25.721Z,97706.88
2023-09-27T04:33:52.812Z,97710.91
2023-09-27T04:36:19.858Z,97711.34
2023-09-27T04:38:47.655Z,97713.97
2023-09-27T04:41:16.457Z,97714.94
2023-09-27T04:43:44.181Z,97719.00
2023-09-27T04:46:20.050Z,97716.06
2023-09-27T04:48:47.325Z,97724.69
2023-09-27T04:51:14.241Z,97717.75
2023-09-27T04:53:41.361Z,97718.31
2023-09-27T04:56:09.084Z,97722.50
2023-09-27T04:58:44.565Z,97725.56
2023-09-27T05:01:12.389Z,97725.00
2023-09-27T05:03:39.573Z,97730.00
2023-09-27T05:06:06.719Z,97721.25
2023-09-27T05:08:33.732Z,97730.69
2023-09-27T05:11:00.792Z,97727.94
2023-09-27T05:13:27.744Z,97727.50
2023-09-27T05:15:54.640Z,97738.34
2023-09-27T05:18:24.062Z,97735.28
2023-09-27T05:20:51.380Z,97725.53
2023-09-27T05:23:18.281Z,97732.97
2023-09-27T05:25:45.693Z,97726.84
2023-09-27T05:28:12.526Z,97729.59
2023-09-27T05:30:39.373Z,97729.81
2023-09-27T05:33:06.274Z,97730.56
2023-09-27T05:35:33.263Z,97734.53
2023-09-27T05:38:00.339Z,97737.38
2023-09-27T05:40:27.708Z,97736.78
2023-09-27T05:42:54.661Z,97743.69
2023-09-27T05:45:21.541Z,97734.81
2023-09-27T05:47:48.896Z,97738.69
2023-09-27T05:50:15.830Z,97731.91
2023-09-27T05:52:47.874Z,97734.69
2023-09-27T05:55:17.791Z,97736.09
2023-09-27T05:57:45.494Z,97742.41
2023-09-27T06:00:23.403Z,97743.38
2023-09-27T06:02:51.270Z,97752.59
2023-09-27T06:05:21.907Z,97740.25
2023-09-27T06:07:49.571Z,97742.50
2023-09-27T06:10:17.734Z,97746.28
2023-09-27T06:12:44.857Z,97741.91
2023-09-27T06:15:13.497Z,97750.31
2023-09-27T06:17:41.034Z,97748.50
2023-09-27T06:20:13.567Z,97755.88
2023-09-27T06:22:41.754Z,97764.69
2023-09-27T06:25:09.229Z,97763.56
2023-09-27T06:27:36.540Z,97766.91
2023-09-27T06:30:06.505Z,97772.56
2023-09-27T06:32:34.711Z,97772.94
2023-09-27T06:35:11.836Z,97776.56
2023-09-27T06:37:38.934Z,97765.63
2023-09-27T06:40:09.537Z,97771.41
2023-09-27T06:42:37.280Z,97777.88
2023-09-27T06:45:05.310Z,97767.06
2023-09-27T06:47:36.226Z,97768.09
2023-09-27T06:50:04.302Z,97772.56
2023-09-27T06:52:31.633Z,97769.56
2023-09-27T06:54:58.939Z,97764.88
2023-09-27T06:57:25.802Z,97769.31
2023-09-27T06:59:52.925Z,97760.78
2023-09-27T07:02:19.851Z,97753.38
2023-09-27T07:04:47.761Z,97762.91
2023-09-27T07:07:14.741Z,97759.59
2023-09-27T07:09:42.085Z,97765.88
2023-09-27T07:12:09.792Z,97762.41
2023-09-27T07:14:37.459Z,97763.06
2023-09-27T07:17:05.551Z,97766.72
2023-09-27T07:19:33.254Z,97765.34
2023-09-27T07:22:00.800Z,97770.06
2023-09-27T07:24:29.145Z,97769.84
2023-09-27T07:26:56.137Z,97771.84
2023-09-27T07:29:23.072Z,97764.50
2023-09-27T07:31:50.851Z,97771.97
2023-09-27T07:34:18.247Z,97774.97
2023-09-27T07:36:47.572Z,97768.38
2023-09-27T07:39:17.001Z,97760.28
2023-09-27T07:41:44.147Z,97759.75
2023-09-27T07:44:14.051Z,97763.19
2023-09-27T07:46:42.078Z,97756.88
2023-09-27T07:49:09.526Z,97758.84
2023-09-27T07:51:36.461Z,97750.97
2023-09-27T07:54:09.380Z,97749.84
2023-09-27T07:56:41.692Z,97748.19
2023-09-27T07:59:08.583Z,97750.63
2023-09-27T08:01:35.573Z,97751.78
2023-09-27T08:04:11.859Z,97746.16
2023-09-27T08:06:40.062Z,97748.16
2023-09-27T08:09:20.289Z,97746.13
2023-09-27T08:11:51.951Z,97750.31
2023-09-27T08:14:21.139Z,97751.34
2023-09-27T08:16:48.750Z,97747.06
2023-09-27T08:19:16.018Z,97747.06
2023-09-27T08:21:57.712Z,97748.34
2023-09-27T08:24:27.609Z,97738.88
2023-09-27T08:26:54.387Z,97742.78
2023-09-27T08:29:22.912Z,97740.31
2023-09-27T08:31:49.834Z,97741.38
2023-09-27T08:34:17.419Z,97728.13
2023-09-27T08:36:44.265Z,97732.06
2023-09-27T08:39:11.146Z,97735.34
2023-09-27T08:41:39.579Z,97735.75
2023-09-27T08:44:09.002Z,97738.06
2023-09-27T08:46:37.257Z,97736.06
2023-09-27T08:49:05.490Z,97733.97
2023-09-27T08:51:32.688Z,97726.88
2023-09-27T08:53:59.588Z,97733.47
2023-09-27T08:56:28.850Z,97729.47
2023-09-27T08:58:56.644Z,97720.69
2023-09-27T09:01:25.522Z,97727.47
2023-09-27T09:03:54.103Z,97722.47
2023-09-27T09:06:21.978Z,97722.78
2023-09-27T09:08:48.932Z,97724.66
2023-09-27T09:11:22.491Z,97717.69
2023-09-27T09:14:06.208Z,97708.34
2023-09-27T09:16:41.672Z,97705.91
2023-09-27T09:20:02.357Z,97711.09
2023-09-27T09:22:31.891Z,97695.69
2023-09-27T09:25:00.913Z,97699.66
2023-09-27T09:27:27.715Z,97688.84
2023-09-27T09:29:55.025Z,97691.56
2023-09-27T09:32:26.074Z,97685.88
2023-09-27T09:34:55.432Z,97697.41
2023-09-27T09:37:35.123Z,97698.94
2023-09-27T09:40:16.616Z,97700.09
2023-09-27T09:42:44.702Z,97701.25
2023-09-27T09:45:13.808Z,97703.09
2023-09-27T09:47:43.367Z,97705.81
2023-09-27T09:50:20.980Z,97706.41
2023-09-27T09:52:55.439Z,97705.44
2023-09-27T09:55:45.159Z,97704.09
2023-09-27T09:58:27.284Z,97697.41
2023-09-27T10:00:55.444Z,97704.13
2023-09-27T10:03:23.849Z,97703.13
2023-09-27T10:05:52.993Z,97704.75
2023-09-27T10:08:20.963Z,97700.72
2023-09-27T10:10:48.466Z,97713.56
2023-09-27T10:13:16.498Z,97693.94
2023-09-27T10:15:44.988Z,97704.63
2023-09-27T10:18:24.423Z,97701.47
2023-09-27T10:21:20.150Z,97699.63
2023-09-27T10:24:00.142Z,97690.78
2023-09-27T10:26:30.785Z,97690.78
2023-09-27T10:29:16.647Z,97688.91
2023-09-27T10:31:57.164Z,97687.69
2023-09-27T10:34:26.998Z,97689.75
2023-09-27T10:37:14.961Z,97681.91
2023-09-27T10:40:22.623Z,97681.84
2023-09-27T10:42:50.712Z,97671.84
2023-09-27T10:45:18.679Z,97664.97
2023-09-27T10:47:48.526Z,97679.91
2023-09-27T10:50:18.091Z,97679.47
2023-09-27T10:52:48.141Z,97674.41
2023-09-27T10:55:15.713Z,97671.19
2023-09-27T10:57:42.942Z,97668.50
2023-09-27T11:00:13.746Z,97658.53
2023-09-27T11:02:43.205Z,97655.41
2023-09-27T11:05:10.741Z,97655.81
2023-09-27T11:07:50.456Z,97644.06
2023-09-27T11:10:31.534Z,97647.13
2023-09-27T11:13:11.693Z,97640.38
2023-09-27T11:15:39.959Z,97635.59
2023-09-27T11:18:12.174Z,97628.91
2023-09-27T11:20:41.421Z,97622.19
2023-09-27T11:23:19.801Z,97626.09
2023-09-27T11:25:50.884Z,97624.91
2023-09-27T11:28:18.822Z,97603.53
2023-09-27T11:30:52.384Z,97609.19
2023-09-27T11:33:20.754Z,97606.00
2023-09-27T11:35:50.650Z,97593.59
2023-09-27T11:38:17.974Z,97589.53
2023-09-27T11:40:45.436Z,97599.44
2023-09-27T11:43:13.928Z,97606.38
2023-09-27T11:45:54.372Z,97608.38
2023-09-27T11:48:36.549Z,97605.63
2023-09-27T11:51:04.440Z,97597.25
2023-09-27T11:53:31.957Z,97599.03
2023-09-27T11:56:00.982Z,97599.78
2023-09-27T11:58:28.487Z,97585.19
2023-09-27T12:00:55.415Z,97592.22
2023-09-27T12:03:22.388Z,97579.25
2023-09-27T12:05:49.892Z,97581.88
2023-09-27T12:08:26.591Z,97576.53
2023-09-27T12:10:53.686Z,97572.25
2023-09-27T12:13:20.723Z,97562.28
2023-09-27T12:16:09.062Z,97559.22
2023-09-27T12:18:39.221Z,97568.00
2023-09-27T12:21:06.166Z,97562.69
2023-09-27T12:23:36.368Z,97557.22
2023-09-27T12:26:03.728Z,97552.88
2023-09-27T12:28:30.649Z,97558.25
2023-09-27T12:31:16.121Z,97558.25
2023-09-27T12:33:43.102Z,97549.56
2023-09-27T12:36:28.483Z,97562.72
2023-09-27T12:38:55.625Z,97556.41
2023-09-27T12:41:26.040Z,97561.84
2023-09-27T12:43:53.459Z,97555.44
2023-09-27T12:46:21.352Z,97553.72
2023-09-27T12:48:49.351Z,97549.56
2023-09-27T12:51:16.254Z,97538.28
2023-09-27T12:53:49.511Z,97539.91
2023-09-27T12:56:18.702Z,97537.06
2023-09-27T12:59:05.774Z,97533.59
2023-09-27T13:01:32.941Z,97526.25
2023-09-27T13:03:59.910Z,97530.38
2023-09-27T13:06:26.898Z,97531.72
2023-09-27T13:08:56.696Z,97532.53
2023-09-27T13:11:23.726Z,97529.25
2023-09-27T13:14:09.156Z,97535.09
2023-09-27T13:17:13.146Z,97525.81
2023-09-27T13:19:40.118Z,97518.78
2023-09-27T13:22:07.875Z,97520.97
2023-09-27T13:24:34.732Z,97511.03
2023-09-27T13:27:20.441Z,97519.59
2023-09-27T13:30:29.295Z,97509.31
2023-09-27T13:33:07.314Z,97509.81
2023-09-27T13:35:36.662Z,97508.44
2023-09-27T13:38:08.264Z,97499.63
2023-09-27T13:40:40.550Z,97499.34
2023-09-27T13:43:07.539Z,97500.53
2023-09-27T13:45:35.819Z,97495.44
2023-09-27T13:48:22.380Z,97492.59
2023-09-27T13:51:07.710Z,97492.44
2023-09-27T13:53:37.669Z,97494.00
2023-09-27T13:56:04.772Z,97488.00
2023-09-27T13:58:31.938Z,97491.38
2023-09-27T14:01:17.627Z,97486.66
2023-09-27T14:03:44.644Z,97490.16
2023-09-27T14:06:12.059Z,97489.72
2023-09-27T14:08:39.093Z,97487.78
2023-09-27T14:11:05.920Z,97473.88
2023-09-27T14:13:35.746Z,97478.34
2023-09-27T14:16:02.834Z,97479.41
2023-09-27T14:18:29.748Z,97482.25
2023-09-27T14:20:56.733Z,97480.75
2023-09-27T14:23:23.487Z,97483.00
2023-09-27T14:25:50.385Z,97480.63
2023-09-27T14:28:17.978Z,97484.06
2023-09-27T14:31:07.183Z,97479.41
2023-09-27T14:33:35.075Z,97475.44
2023-09-27T14:36:05.565Z,97479.19
2023-09-27T14:38:36.174Z,97483.81
2023-09-27T14:41:12.468Z,97480.16
2023-09-27T14:44:01.208Z,97485.19
2023-09-27T14:46:28.522Z,97474.97
2023-09-27T14:48:55.689Z,97471.69
2023-09-27T14:51:22.576Z,97475.06
2023-09-27T14:53:49.399Z,97476.94
2023-09-27T14:56:18.863Z,97475.19
2023-09-27T14:58:47.977Z,97473.31
2023-09-27T15:01:18.160Z,97482.44
2023-09-27T15:03:45.795Z,97478.34
2023-09-27T15:06:12.616Z,97476.75
2023-09-27T15:08:39.434Z,97482.38
2023-09-27T15:11:06.400Z,97476.81
2023-09-27T15:13:52.395Z,97473.53
2023-09-27T15:16:20.564Z,97477.28
2023-09-27T15:18:48.031Z,97471.50
2023-09-27T15:21:18.026Z,97472.94
2023-09-27T15:23:45.736Z,97472.97
2023-09-27T15:26:30.964Z,97487.44
2023-09-27T15:28:57.788Z,97487.06
2023-09-27T15:31:58.295Z,97488.31
2023-09-27T15:38:15.130Z,97489.56
2023-09-27T15:40:42.475Z,97498.25
2023-09-27T15:43:11.100Z,97487.25
2023-09-27T15:45:41.644Z,97485.03
2023-09-27T15:48:12.658Z,97493.47
2023-09-27T15:51:02.128Z,97487.88
2023-09-27T15:53:32.974Z,97488.28
2023-09-27T15:56:01.779Z,97497.13
2023-09-27T15:58:32.324Z,97496.09
2023-09-27T16:01:08.824Z,97490.66
2023-09-27T16:03:36.610Z,97494.78
2023-09-27T16:06:05.629Z,97491.84
2023-09-27T16:08:33.028Z,97498.16
2023-09-27T16:11:22.147Z,97497.91
2023-09-27T16:13:49.225Z,97498.28
2023-09-27T16:16:16.531Z,97489.16
2023-09-27T16:19:02.843Z,97489.13
2023-09-27T16:21:50.646Z,97484.97
2023-09-27T16:24:17.912Z,97490.31
2023-09-27T16:26:45.282Z,97492.31
2023-09-27T16:29:12.402Z,97499.19
2023-09-27T16:31:58.033Z,97501.53
2023-09-27T16:34:25.746Z,97517.44
2023-09-27T16:36:53.149Z,97507.53
2023-09-27T16:42:07.361Z,97515.19
2023-09-27T16:44:38.797Z,97513.78
2023-09-27T16:47:11.914Z,97523.19
2023-09-27T16:49:39.646Z,97525.88
2023-09-27T16:52:09.538Z,97523.50
2023-09-27T16:54:54.489Z,97528.31
2023-09-27T16:57:22.895Z,97537.44
2023-09-27T17:00:11.623Z,97535.88
2023-09-27T17:02:39.586Z,97538.41
2023-09-27T17:05:08.348Z,97541.78
2023-09-27T17:07:56.876Z,97536.56
2023-09-27T17:10:23.693Z,97545.84
2023-09-27T17:12:50.450Z,97547.09
2023-09-27T17:15:35.863Z,97544.22
2023-09-27T17:18:02.954Z,97555.13
2023-09-27T17:20:30.045Z,97561.06
2023-09-27T17:22:56.824Z,97554.81
2023-09-27T17:25:42.719Z,97557.91
2023-09-27T17:28:31.292Z,97566.44
2023-09-27T17:31:00.416Z,97570.69
2023-09-27T17:36:30.599Z,97575.50
2023-09-27T17:39:16.422Z,97579.38
2023-09-27T17:41:44.662Z,97581.59
2023-09-27T17:44:11.739Z,97582.63
2023-09-27T17:46:59.824Z,97588.63
2023-09-27T17:49:30.053Z,97593.69
2023-09-27T17:51:57.165Z,97594.06
2023-09-27T17:54:24.771Z,97602.03
2023-09-27T17:56:54.762Z,97594.28
2023-09-27T17:59:21.712Z,97596.09
2023-09-27T18:01:52.018Z,97605.22
2023-09-27T18:04:22.024Z,97606.75
2023-09-27T18:06:51.541Z,97608.59
2023-09-27T18:09:18.745Z,97619.88
2023-09-27T18:11:45.682Z,97614.91
2023-09-27T18:17:16.351Z,97623.19
2023-09-27T18:19:43.623Z,97628.34
2023-09-27T18:22:10.699Z,97625.50
2023-09-27T18:24:38.181Z,97629.97
2023-09-27T18:30:08.405Z,97637.91
2023-09-27T18:32:35.660Z,97644.84
2023-09-27T18:35:21.210Z,97642.00
2023-09-27T18:37:50.950Z,97644.78
2023-09-27T18:40:39.174Z,97647.41
2023-09-27T18:43:06.293Z,97646.91
2023-09-27T18:45:52.077Z,97648.03
2023-09-27T18:48:37.529Z,97646.31
2023-09-27T18:51:23.742Z,97648.59
2023-09-27T18:54:10.779Z,97651.56
2023-09-27T18:56:38.083Z,97650.22
2023-09-27T18:59:23.858Z,97650.84
2023-09-27T19:02:18.648Z,97647.16
2023-09-27T19:04:45.683Z,97657.09
2023-09-27T19:07:31.297Z,97650.25
2023-09-27T19:09:58.908Z,97651.03
2023-09-27T19:12:44.384Z,97646.19
2023-09-27T19:17:58.875Z,97650.75
2023-09-27T19:20:26.726Z,97653.19
2023-09-27T19:23:12.301Z,97658.50
2023-09-27T19:25:39.535Z,97654.72
2023-09-27T19:28:25.124Z,97664.91
2023-09-27T19:30:52.185Z,97665.50
2023-09-27T19:33:19.124Z,97659.56
2023-09-27T19:36:05.033Z,97649.56
2023-09-27T19:38:32.601Z,97656.66
2023-09-27T19:41:01.705Z,97658.44
2023-09-27T19:43:28.777Z,97654.63
2023-09-27T19:45:55.872Z,97660.38
2023-09-27T19:48:41.149Z,97667.25
2023-09-27T19:51:08.232Z,97658.25
2023-09-27T19:53:54.002Z,97669.13
2023-09-27T19:56:21.911Z,97661.13
2023-09-27T19:58:51.110Z,97661.75
2023-09-27T20:01:50.825Z,97658.69
2023-09-27T20:04:17.875Z,97663.59
2023-09-27T20:06:44.777Z,97660.97
2023-09-27T20:09:12.029Z,97656.41
2023-09-27T20:11:39.130Z,97649.84
2023-09-27T20:14:09.792Z,97645.97
2023-09-27T20:16:38.115Z,97640.41
2023-09-27T20:22:13.752Z,97642.97
2023-09-27T20:24:40.918Z,97645.78
2023-09-27T20:30:31.156Z,97646.38
2023-09-27T20:32:58.148Z,97647.53
2023-09-27T20:35:43.481Z,97646.19
2023-09-27T20:38:10.695Z,97642.25
2023-09-27T20:40:38.217Z,97652.44
2023-09-27T20:43:23.979Z,97645.91
2023-09-27T20:45:51.443Z,97646.47
2023-09-27T20:48:18.390Z,97641.19
2023-09-27T20:50:45.257Z,97640.66
2023-09-27T20:53:12.271Z,97635.91
2023-09-27T20:55:39.409Z,97641.78
2023-09-27T20:58:06.721Z,97632.34
2023-09-27T21:01:11.134Z,97639.91
2023-09-27T21:03:38.600Z,97638.50
2023-09-27T21:06:06.106Z,97626.84
2023-09-27T21:08:33.087Z,97632.53
2023-09-27T21:11:00.099Z,97628.66
2023-09-27T21:13:46.150Z,97628.69
2023-09-27T21:16:13.365Z,97628.00
2023-09-27T21:24:27.282Z,97629.66
2023-09-27T21:26:54.446Z,97627.03
2023-09-27T21:29:40.223Z,97629.38
2023-09-27T21:32:07.338Z,97627.72
2023-09-27T21:34:52.797Z,97629.38
2023-09-27T21:37:22.813Z,97629.69
2023-09-27T21:40:27.640Z,97626.50
2023-09-27T21:43:12.992Z,97623.88
2023-09-27T21:45:40.856Z,97615.25
2023-09-27T21:48:26.637Z,97616.50
2023-09-27T21:51:12.496Z,97611.38
2023-09-27T21:53:41.135Z,97610.53
2023-09-27T21:56:11.558Z,97610.66
2023-09-27T21:58:38.680Z,97610.81
2023-09-27T22:01:14.166Z,97611.94
2023-09-27T22:09:47.587Z,97608.75
2023-09-27T22:12:14.731Z,97610.84
2023-09-27T22:15:04.052Z,97601.94
2023-09-27T22:20:21.024Z,97606.38
2023-09-27T22:22:48.407Z,97604.13
2023-09-27T22:25:15.831Z,97608.03
2023-09-27T22:27:50.341Z,97605.53
2023-09-27T22:30:17.479Z,97603.56
2023-09-27T22:32:46.448Z,97605.22
2023-09-27T22:35:50.807Z,97607.44
2023-09-27T22:38:19.565Z,97617.44
2023-09-27T22:40:49.942Z,97605.06
2023-09-27T22:43:17.646Z,97599.09
2023-09-27T22:46:03.846Z,97608.25
2023-09-27T22:48:31.072Z,97597.69
2023-09-27T22:51:01.402Z,97605.63
2023-09-27T22:53:28.683Z,97606.06
2023-09-27T22:56:14.461Z,97604.94
2023-09-27T22:59:03.048Z,97599.94
2023-09-27T23:01:48.341Z,97605.19
2023-09-27T23:04:16.539Z,97601.72
2023-09-27T23:07:01.366Z,97596.03
2023-09-27T23:09:35.805Z,97603.81
2023-09-27T23:12:20.903Z,97596.28
2023-09-27T23:15:21.249Z,97597.41
2023-09-27T23:18:12.390Z,97602.69
2023-09-27T23:20:40.929Z,97601.56
2023-09-27T23:26:01.898Z,97586.31
2023-09-27T23:28:47.430Z,97587.72
2023-09-27T23:34:36.222Z,97594.50
2023-09-27T23:37:17.358Z,97585.06
2023-09-27T23:40:11.053Z,97579.63
2023-09-27T23:42:44.199Z,97586.16
2023-09-27T23:45:12.347Z,97590.19
2023-09-27T23:48:16.823Z,97579.53
2023-09-27T23:54:10.855Z,97576.16
2023-09-27T23:56:37.624Z,97574.75
2023-09-27T23:59:09.581Z,97574.19
